createdAt,value
2019-03-06T00:01:25.767Z,17.02
2019-03-06T00:04:25.041Z,20.10
2019-03-06T00:07:08.919Z,20.10
2019-03-06T00:09:53.481Z,17.23
2019-03-06T00:12:36.791Z,19.57
2019-03-06T00:15:27.685Z,15.00
2019-03-06T00:18:05.138Z,23.10
2019-03-06T00:20:53.744Z,17.83
2019-03-06T00:23:38.570Z,15.03
2019-03-06T00:26:40.406Z,16.43
2019-03-06T00:29:24.291Z,17.70
2019-03-06T00:32:08.547Z,18.70
2019-03-06T00:35:02.770Z,19.87
2019-03-06T00:40:46.290Z,22.00
2019-03-06T00:43:23.705Z,19.03
2019-03-06T00:46:07.727Z,21.23
2019-03-06T00:48:49.815Z,16.20
2019-03-06T00:51:38.294Z,22.47
2019-03-06T00:54:16.943Z,12.83
2019-03-06T01:02:33.931Z,13.37
2019-03-06T01:05:11.949Z,14.00
2019-03-06T01:08:05.291Z,18.83
2019-03-06T01:10:42.763Z,18.83
2019-03-06T01:16:21.810Z,13.70
2019-03-06T01:18:59.846Z,14.67
2019-03-06T01:21:48.565Z,21.00
2019-03-06T01:30:07.961Z,16.50
2019-03-06T01:32:55.635Z,18.40
2019-03-06T01:36:10.752Z,17.33
2019-03-06T01:39:01.308Z,19.80
2019-03-06T01:45:09.045Z,16.60
2019-03-06T01:47:53.242Z,26.60
2019-03-06T01:50:36.402Z,22.20
2019-03-06T01:53:20.483Z,21.57
2019-03-06T01:56:22.255Z,24.03
2019-03-06T01:59:07.177Z,17.57
2019-03-06T02:01:51.914Z,25.97
2019-03-06T02:04:36.616Z,17.57
2019-03-06T02:07:33.584Z,18.13
2019-03-06T02:10:31.553Z,17.47
2019-03-06T02:13:21.405Z,19.03
2019-03-06T02:15:59.034Z,21.57
2019-03-06T02:18:51.066Z,17.10
2019-03-06T02:21:34.369Z,21.00
2019-03-06T02:24:27.391Z,23.30
2019-03-06T02:27:10.189Z,16.53
2019-03-06T02:35:24.889Z,16.03
2019-03-06T02:38:13.543Z,18.90
2019-03-06T02:41:03.781Z,24.17
2019-03-06T02:43:41.283Z,14.17
2019-03-06T02:46:32.298Z,18.63
2019-03-06T02:49:09.984Z,22.90
2019-03-06T02:57:26.936Z,13.70
2019-03-06T03:00:30.118Z,22.00
2019-03-06T03:03:20.038Z,14.60
2019-03-06T03:06:06.776Z,23.53
2019-03-06T03:08:56.145Z,19.53
2019-03-06T03:11:40.118Z,21.10
2019-03-06T03:14:31.785Z,21.47
2019-03-06T03:17:09.110Z,23.57
2019-03-06T03:19:58.477Z,16.20
2019-03-06T03:22:40.912Z,30.97
2019-03-06T03:25:31.885Z,20.80
2019-03-06T03:28:09.524Z,27.60
2019-03-06T03:31:00.631Z,18.40
2019-03-06T03:33:38.260Z,21.07
2019-03-06T03:41:52.818Z,27.07
2019-03-06T03:44:47.623Z,11.33
2019-03-06T03:47:29.305Z,28.43
2019-03-06T03:50:06.707Z,25.53
2019-03-06T03:52:56.104Z,16.23
2019-03-06T03:55:39.910Z,19.50
2019-03-06T03:58:23.030Z,21.70
2019-03-06T04:01:06.416Z,20.60
2019-03-06T04:03:57.403Z,17.50
2019-03-06T04:06:34.883Z,31.73
2019-03-06T04:09:24.867Z,24.83
2019-03-06T04:12:08.552Z,24.97
2019-03-06T04:14:59.334Z,20.03
2019-03-06T04:17:44.767Z,17.60
2019-03-06T04:20:34.286Z,25.83
2019-03-06T04:23:11.969Z,22.97
2019-03-06T04:26:01.713Z,26.00
2019-03-06T04:28:44.687Z,20.83
2019-03-06T04:31:35.639Z,21.97
2019-03-06T04:34:13.450Z,21.70
2019-03-06T04:37:04.751Z,16.77
2019-03-06T04:39:42.347Z,21.07
2019-03-06T04:42:34.153Z,22.67
2019-03-06T04:45:31.815Z,18.13
2019-03-06T04:48:22.979Z,15.00
2019-03-06T04:51:00.808Z,23.80
2019-03-06T04:53:53.178Z,19.57
2019-03-06T04:59:32.398Z,14.70
2019-03-06T05:02:19.136Z,18.47
2019-03-06T05:05:09.688Z,23.30
2019-03-06T05:07:49.473Z,23.90
2019-03-06T05:10:40.529Z,24.17
2019-03-06T05:13:16.288Z,20.83
2019-03-06T05:18:59.514Z,28.73
2019-03-06T05:21:41.495Z,20.27
2019-03-06T05:24:29.908Z,28.63
2019-03-06T05:27:24.518Z,20.27
2019-03-06T05:30:09.599Z,19.57
2019-03-06T05:32:53.678Z,27.70
2019-03-06T05:35:47.992Z,28.13
2019-03-06T05:38:39.956Z,27.00
2019-03-06T05:41:36.928Z,21.40
2019-03-06T05:44:20.870Z,26.97
2019-03-06T05:49:55.039Z,27.33
2019-03-06T05:52:37.591Z,19.13
2019-03-06T05:55:28.043Z,19.27
2019-03-06T05:58:05.600Z,24.60
2019-03-06T06:00:57.072Z,21.07
2019-03-06T06:03:34.910Z,26.63
2019-03-06T06:06:26.297Z,29.67
2019-03-06T06:09:05.073Z,25.13
2019-03-06T06:11:55.948Z,24.07
2019-03-06T06:14:33.811Z,23.47
2019-03-06T06:17:24.964Z,24.53
2019-03-06T06:20:02.869Z,30.23
2019-03-06T06:23:12.366Z,20.40
2019-03-06T06:25:50.852Z,24.40
2019-03-06T06:28:41.794Z,24.37
2019-03-06T06:31:19.705Z,32.67
2019-03-06T06:34:11.139Z,20.00
2019-03-06T06:36:56.298Z,23.73
2019-03-06T06:39:44.478Z,24.97
2019-03-06T06:42:22.225Z,22.20
2019-03-06T06:45:13.387Z,31.53
2019-03-06T06:51:58.623Z,23.47
2019-03-06T06:55:26.298Z,23.40
2019-03-06T06:58:46.539Z,29.40
2019-03-06T07:02:02.863Z,28.80
2019-03-06T07:05:34.241Z,31.93
2019-03-06T07:08:39.627Z,27.73
2019-03-06T07:11:56.935Z,27.70
2019-03-06T07:14:59.376Z,21.70
2019-03-06T07:17:57.669Z,21.50
2019-03-06T07:21:01.108Z,27.03
2019-03-06T07:24:00.717Z,20.90
2019-03-06T07:26:52.377Z,30.60
2019-03-06T07:29:43.399Z,32.87
2019-03-06T07:32:57.050Z,24.57
2019-03-06T07:36:47.512Z,23.87
2019-03-06T07:39:41.937Z,31.33
2019-03-06T07:42:58.417Z,29.97
2019-03-06T07:45:59.920Z,32.77
2019-03-06T07:49:17.692Z,34.97
2019-03-06T07:52:34.205Z,28.13
2019-03-06T07:55:38.330Z,29.53
2019-03-06T07:59:17.706Z,30.50
2019-03-06T08:05:02.139Z,33.77
2019-03-06T08:07:57.333Z,41.43
2019-03-06T08:10:43.038Z,32.93
2019-03-06T08:13:51.681Z,26.70
2019-03-06T08:20:13.412Z,26.13
2019-03-06T08:23:14.579Z,28.20
2019-03-06T08:26:05.538Z,36.53
2019-03-06T08:28:43.510Z,33.40
2019-03-06T08:31:38.544Z,30.40
2019-03-06T08:34:22.011Z,37.87
2019-03-06T08:37:06.421Z,34.17
2019-03-06T08:39:50.348Z,27.03
2019-03-06T08:42:34.572Z,38.67
2019-03-06T08:45:30.147Z,26.77
2019-03-06T08:48:32.144Z,26.47
2019-03-06T08:51:32.269Z,34.70
2019-03-06T08:54:27.575Z,30.67
2019-03-06T08:57:33.028Z,45.60
2019-03-06T09:00:38.924Z,28.90
2019-03-06T09:03:43.071Z,29.07
2019-03-06T09:06:47.803Z,32.60
2019-03-06T09:09:51.983Z,30.50
2019-03-06T09:13:00.324Z,29.57
2019-03-06T09:15:39.809Z,27.47
2019-03-06T09:18:56.354Z,30.23
2019-03-06T09:21:50.672Z,34.23
2019-03-06T09:24:56.216Z,33.33
2019-03-06T09:28:07.034Z,24.93
2019-03-06T09:31:28.354Z,42.60
2019-03-06T09:34:43.580Z,28.50
2019-03-06T09:37:40.942Z,40.13
2019-03-06T09:40:41.607Z,31.03
2019-03-06T09:43:48.376Z,49.53
2019-03-06T09:46:57.117Z,42.37
2019-03-06T09:50:06.746Z,30.83
2019-03-06T09:53:15.423Z,37.00
2019-03-06T09:56:27.960Z,43.30
2019-03-06T09:59:37.333Z,48.17
2019-03-06T10:02:46.163Z,37.43
2019-03-06T10:05:44.032Z,34.83
2019-03-06T10:08:59.363Z,31.17
2019-03-06T10:12:00.245Z,36.70
2019-03-06T10:15:10.350Z,54.90
2019-03-06T10:17:56.351Z,41.67
2019-03-06T10:20:49.405Z,27.93
2019-03-06T10:23:26.909Z,45.97
2019-03-06T10:26:18.189Z,36.00
2019-03-06T10:28:53.806Z,31.40
2019-03-06T10:31:44.209Z,29.80
2019-03-06T10:34:22.402Z,26.43
2019-03-06T10:39:49.778Z,33.73
2019-03-06T10:42:40.993Z,34.17
2019-03-06T10:45:20.468Z,32.90
2019-03-06T10:48:18.292Z,37.17
2019-03-06T10:51:16.500Z,44.97
2019-03-06T10:59:35.272Z,34.63
2019-03-06T11:02:36.655Z,28.27
2019-03-06T11:05:36.050Z,35.33
2019-03-06T11:08:21.250Z,32.70
2019-03-06T11:13:47.802Z,38.67
2019-03-06T11:16:26.095Z,33.63
2019-03-06T11:22:11.879Z,33.40
2019-03-06T11:27:52.443Z,27.20
2019-03-06T11:30:33.502Z,27.70
2019-03-06T11:38:48.714Z,18.63
2019-03-06T11:41:33.236Z,17.00
2019-03-06T11:46:59.772Z,17.00
2019-03-06T11:49:44.772Z,16.00
2019-03-06T11:52:28.722Z,17.47
2019-03-06T11:55:14.367Z,12.17
2019-03-06T11:57:58.601Z,28.77
2019-03-06T12:00:44.706Z,23.50
2019-03-06T12:11:38.925Z,14.57
2019-03-06T12:14:21.405Z,18.80
2019-03-06T12:17:12.077Z,22.50
2019-03-06T12:19:49.713Z,15.50
2019-03-06T12:25:28.141Z,18.93
2019-03-06T12:28:11.943Z,17.97
2019-03-06T12:33:44.315Z,22.53
2019-03-06T12:36:21.583Z,25.90
2019-03-06T12:41:48.838Z,23.33
2019-03-06T12:44:26.265Z,23.13
2019-03-06T12:47:15.276Z,17.90
2019-03-06T12:50:17.541Z,14.40
2019-03-06T12:53:07.787Z,28.80
2019-03-06T12:55:55.171Z,28.57
2019-03-06T12:58:39.426Z,25.97
2019-03-06T13:01:22.211Z,15.50
2019-03-06T13:04:15.840Z,18.53
2019-03-06T13:06:58.145Z,24.57
2019-03-06T13:09:46.354Z,19.43
2019-03-06T13:12:24.143Z,30.70
2019-03-06T13:15:17.292Z,23.57
2019-03-06T13:18:04.489Z,18.33
2019-03-06T13:21:02.405Z,15.87
2019-03-06T13:23:47.157Z,17.10
2019-03-06T13:26:33.443Z,13.40
2019-03-06T13:29:18.319Z,15.30
2019-03-06T13:32:11.253Z,26.87
2019-03-06T13:34:50.711Z,20.10
2019-03-06T13:40:20.837Z,19.37
2019-03-06T13:43:06.274Z,18.97
2019-03-06T13:45:51.139Z,18.87
2019-03-06T13:48:34.169Z,20.67
2019-03-06T13:51:24.892Z,18.37
2019-03-06T13:54:02.039Z,20.53
2019-03-06T13:56:52.958Z,20.40
2019-03-06T13:59:30.346Z,19.53
2019-03-06T14:02:20.598Z,14.07
2019-03-06T14:04:59.899Z,21.20
2019-03-06T14:07:56.363Z,21.60
2019-03-06T14:10:31.156Z,21.23
2019-03-06T14:13:21.178Z,34.17
2019-03-06T14:16:00.575Z,14.53
2019-03-06T14:18:51.452Z,16.30
2019-03-06T14:21:36.183Z,15.40
2019-03-06T14:24:20.645Z,21.03
2019-03-06T14:27:06.202Z,15.30
2019-03-06T14:29:59.923Z,14.40
2019-03-06T14:32:44.419Z,16.20
2019-03-06T14:35:28.151Z,15.10
2019-03-06T14:38:22.435Z,18.83
2019-03-06T14:41:06.621Z,14.70
2019-03-06T14:43:56.437Z,23.73
2019-03-06T14:49:26.584Z,17.80
2019-03-06T14:52:23.598Z,25.20
2019-03-06T14:55:14.571Z,20.37
2019-03-06T14:57:59.748Z,19.70
2019-03-06T15:03:29.672Z,25.70
2019-03-06T15:06:12.657Z,22.03
2019-03-06T15:11:46.957Z,18.00
2019-03-06T15:14:36.565Z,16.60
2019-03-06T15:17:20.576Z,38.60
2019-03-06T15:20:02.818Z,21.20
2019-03-06T15:23:00.947Z,24.00
2019-03-06T15:25:58.605Z,19.97
2019-03-06T15:28:48.882Z,33.90
2019-03-06T15:31:32.407Z,24.07
2019-03-06T15:34:23.494Z,22.50
2019-03-06T15:37:11.315Z,28.80
2019-03-06T15:40:00.360Z,21.63
2019-03-06T15:42:43.946Z,31.47
2019-03-06T15:45:35.758Z,19.80
2019-03-06T15:48:13.900Z,30.27
2019-03-06T15:51:04.707Z,27.63
2019-03-06T15:53:42.535Z,29.87
2019-03-06T15:56:32.466Z,24.17
2019-03-06T15:59:32.864Z,49.83
2019-03-06T16:02:17.884Z,23.97
2019-03-06T16:05:01.864Z,29.20
2019-03-06T16:07:47.061Z,21.17
2019-03-06T16:10:30.501Z,31.03
2019-03-06T16:13:15.024Z,20.97
2019-03-06T16:16:00.093Z,23.77
2019-03-06T16:18:44.956Z,20.43
2019-03-06T16:21:32.852Z,21.77
2019-03-06T16:24:24.856Z,26.07
2019-03-06T16:27:00.535Z,21.83
2019-03-06T16:29:51.065Z,25.40
2019-03-06T16:32:48.473Z,34.27
2019-03-06T16:35:41.392Z,19.10
2019-03-06T16:38:25.971Z,27.10
2019-03-06T16:41:13.469Z,29.20
2019-03-06T16:43:52.836Z,26.20
2019-03-06T16:46:43.914Z,21.40
2019-03-06T16:49:21.445Z,22.80
2019-03-06T16:54:54.210Z,23.57
2019-03-06T16:57:37.322Z,23.10
2019-03-06T17:00:36.095Z,27.50
2019-03-06T17:03:14.006Z,23.43
2019-03-06T17:06:06.018Z,20.70
2019-03-06T17:08:43.830Z,22.03
2019-03-06T17:11:33.670Z,31.97
2019-03-06T17:14:12.014Z,18.83
2019-03-06T17:16:56.580Z,19.83
2019-03-06T17:19:42.453Z,31.47
2019-03-06T17:22:26.941Z,24.43
2019-03-06T17:25:11.905Z,29.70
2019-03-06T17:27:56.811Z,35.83
2019-03-06T17:30:39.786Z,30.40
2019-03-06T17:33:31.509Z,20.27
2019-03-06T17:36:13.266Z,21.73
2019-03-06T17:39:04.190Z,26.23
2019-03-06T17:41:43.820Z,22.30
2019-03-06T17:47:16.121Z,30.77
2019-03-06T17:50:11.872Z,33.17
2019-03-06T17:52:55.973Z,25.27
2019-03-06T17:55:53.341Z,23.60
2019-03-06T18:01:27.028Z,16.93
2019-03-06T18:04:09.995Z,24.00
2019-03-06T18:12:26.509Z,24.90
2019-03-06T18:15:24.862Z,24.33
2019-03-06T18:18:16.456Z,25.27
2019-03-06T18:20:58.428Z,19.83
2019-03-06T18:29:22.691Z,29.23
2019-03-06T18:32:04.218Z,26.20
2019-03-06T18:34:55.889Z,34.37
2019-03-06T18:37:38.730Z,29.20
2019-03-06T18:43:15.044Z,29.93
2019-03-06T18:45:56.035Z,25.50
2019-03-06T18:48:46.044Z,29.50
2019-03-06T18:51:28.916Z,23.20
2019-03-06T18:54:17.383Z,26.33
2019-03-06T18:56:55.038Z,26.67
2019-03-06T18:59:46.689Z,29.77
2019-03-06T19:02:24.998Z,29.50
2019-03-06T19:05:16.512Z,26.40
2019-03-06T19:07:56.744Z,22.97
2019-03-06T19:13:31.467Z,27.00
2019-03-06T19:16:28.310Z,27.67
2019-03-06T19:19:32.254Z,27.40
2019-03-06T19:22:14.594Z,24.73
2019-03-06T19:27:47.216Z,29.00
2019-03-06T19:30:26.455Z,27.77
2019-03-06T19:33:11.002Z,32.00
2019-03-06T19:35:51.544Z,22.80
2019-03-06T19:38:46.677Z,30.10
2019-03-06T19:41:59.035Z,36.60
2019-03-06T19:44:50.116Z,30.03
2019-03-06T19:47:30.816Z,35.73
2019-03-06T19:50:22.717Z,25.37
2019-03-06T19:53:03.592Z,34.70
2019-03-06T19:55:54.332Z,29.97
2019-03-06T19:58:36.915Z,40.27
2019-03-06T20:01:32.292Z,27.73
2019-03-06T20:04:29.763Z,41.30
2019-03-06T20:07:15.449Z,32.37
2019-03-06T20:10:00.352Z,36.73
2019-03-06T20:12:45.599Z,30.40
2019-03-06T20:15:30.428Z,28.83
2019-03-06T20:18:15.179Z,36.47
2019-03-06T20:20:56.822Z,28.80
2019-03-06T20:26:45.868Z,25.97
2019-03-06T20:29:32.450Z,28.57
2019-03-06T20:32:22.803Z,30.37
2019-03-06T20:35:00.458Z,30.47
2019-03-06T20:37:49.351Z,26.70
2019-03-06T20:40:39.440Z,28.63
2019-03-06T20:43:23.562Z,31.53
2019-03-06T20:46:11.938Z,26.70
2019-03-06T20:49:10.050Z,28.50
2019-03-06T20:52:06.521Z,40.63
2019-03-06T20:54:51.061Z,27.67
2019-03-06T21:00:29.043Z,29.80
2019-03-06T21:03:13.442Z,31.73
2019-03-06T21:05:57.869Z,25.13
2019-03-06T21:08:42.226Z,28.40
2019-03-06T21:11:36.375Z,23.00
2019-03-06T21:14:18.832Z,25.10
2019-03-06T21:17:10.049Z,16.00
2019-03-06T21:19:52.047Z,15.27
2019-03-06T21:25:28.141Z,12.10
2019-03-06T21:28:16.550Z,12.87
2019-03-06T21:31:11.733Z,19.87
2019-03-06T21:34:08.680Z,12.87
2019-03-06T21:36:55.892Z,13.40
2019-03-06T21:39:35.699Z,13.50
2019-03-06T21:45:17.369Z,7.33
2019-03-06T21:48:19.987Z,5.90
2019-03-06T21:53:53.824Z,3.83
2019-03-06T21:56:31.801Z,5.83
2019-03-06T21:59:16.276Z,5.80
2019-03-06T22:04:57.525Z,9.13
2019-03-06T22:07:42.344Z,6.47
2019-03-06T22:13:17.035Z,4.57
2019-03-06T22:16:02.052Z,5.87
2019-03-06T22:18:47.339Z,4.40
2019-03-06T22:21:29.978Z,2.80
2019-03-06T22:24:22.113Z,3.83
2019-03-06T22:26:59.719Z,4.67
2019-03-06T22:29:55.311Z,7.47
2019-03-06T22:32:33.365Z,7.90
2019-03-06T22:35:25.240Z,7.13
2019-03-06T22:38:03.673Z,4.47
2019-03-06T22:40:56.466Z,3.23
2019-03-06T22:43:42.024Z,4.00
2019-03-06T22:49:09.041Z,5.93
2019-03-06T22:51:47.663Z,5.80
2019-03-06T23:17:48.194Z,3.13
2019-03-06T23:20:46.172Z,5.03
2019-03-06T23:23:37.780Z,2.40
2019-03-06T23:26:15.823Z,2.93
2019-03-06T23:29:05.769Z,1.80
2019-03-06T23:31:45.491Z,5.73
2019-03-06T23:34:34.647Z,2.73
2019-03-06T23:37:12.704Z,2.10
2019-03-06T23:40:04.754Z,1.83
2019-03-06T23:42:42.208Z,2.53
2019-03-06T23:45:32.455Z,3.93
2019-03-06T23:48:09.751Z,1.90
2019-03-06T23:51:00.829Z,1.50
2019-03-06T23:53:47.935Z,2.87
2019-03-06T23:56:39.652Z,1.97
2019-03-06T23:59:17.338Z,1.90
